Amity, North Carolina
Current Conditions -  °F | °C
As of 2:55 AM on Monday 22 Dec 2014 (Local Time) from KRUQ Reporting Station
Heavy Rain Heavy Rain  
Wind Chill: 35°   Ceiling: 900
Heat Index: 39°   Visibility: 5mi
Dew Point: 37°   Wind: 5mph
Humidity: 94%   Direction: 20°NNE
Pressure: 30.17"   Gusts: NA
Location:  35.7427°N, 80.712°W
Report Text: KRUQ 220755Z AUTO 02004KT 5SM +RA BKN009 OVC018 04/03 A3017 RMK AO2 P0001 T00380029
Loading
Personal Weather Stations






























Interactive Weather Map New forecast layout! Learn more

10-Day Weather Forecast

Advertisements
Track Severe Weather on mobile